Terminal Aerodrome Forecast
Issued by NWS Green Bay, WI

Home | Current Version | Previous Version | Text Only | Print | Product List | Glossary On
Versions: 1 2 3 4 5 6 7 8 9 10 11 12 13 14 15 16 17 18 19 20 21 22 23 24 25 26 27 28 29 30 31 32 33 34 35 36 37 38 39 40 41 42 43 44 45 46
000
FTUS43 KGRB 231000 AAC
TAFGRB
TAF AMD
KGRB 231012Z 2310/2406 19008KT 5SM BR SCT006 OVC012
      TEMPO 2310/2314 OVC006
     FM231400 18011KT 5SM -DZ BR OVC010
     FM232100 15007KT 2SM -RA BR OVC006
     FM240100 13005KT 1SM RA BR OVC002=

USA.gov is the U.S. government's official web portal to all federal, state and local government web resources and services.